Time;durP1;ratioP1;P1;durP2;ratioP2;P2;SDS_P1;SDS_P2;PMS_P1;PMS_P2;Temp;Humidity;BMP_temperature;BMP_pressure;BME280_temperature;BME280_humidity;BME280_pressure;Samples;Min_cycle;Max_cycle;Signal;HPM_P1;HPM_P2
2023/07/15 00:01:19;;;;;;;7.43;5.30;;;17.50;99.90;;;;;;6279113;22;20185;-80
2023/07/15 00:03:49;;;;;;;9.50;5.73;;;17.50;99.90;;;;;;6280148;22;20169;-80
2023/07/15 00:06:17;;;;;;;9.83;5.93;;;17.50;99.90;;;;;;6280020;22;20182;-80
2023/07/15 00:08:44;;;;;;;7.87;5.33;;;17.40;99.90;;;;;;6279080;22;20169;-79
2023/07/15 00:11:31;;;;;;;9.33;5.60;;;17.50;99.90;;;;;;6278717;22;20195;-80
2023/07/15 00:13:59;;;;;;;9.47;5.40;;;17.50;99.90;;;;;;6280116;22;20555;-80
2023/07/15 00:16:28;;;;;;;8.23;4.83;;;17.50;99.90;;;;;;6279908;22;20185;-80
2023/07/15 00:18:55;;;;;;;9.73;4.60;;;17.60;99.90;;;;;;6278552;22;20185;-80
2023/07/15 00:21:25;;;;;;;7.90;4.80;;;17.60;99.90;;;;;;6278714;22;20182;-81
2023/07/15 00:23:55;;;;;;;7.97;5.00;;;17.60;99.90;;;;;;6278977;22;20203;-80
2023/07/15 00:26:24;;;;;;;7.43;4.73;;;17.60;99.90;;;;;;6280589;22;20264;-81
2023/07/15 00:28:52;;;;;;;7.10;4.60;;;17.50;99.90;;;;;;6279938;22;20192;-81
2023/07/15 00:31:20;;;;;;;7.57;5.03;;;17.60;99.90;;;;;;6253169;22;20193;-80
2023/07/15 00:33:48;;;;;;;7.87;4.40;;;17.60;99.90;;;;;;6279864;22;20172;-80
2023/07/15 00:36:16;;;;;;;8.00;4.70;;;17.50;99.90;;;;;;6278302;22;20206;-81
2023/07/15 00:38:44;;;;;;;6.23;4.40;;;17.60;99.90;;;;;;6278971;22;20492;-81
2023/07/15 00:41:28;;;;;;;6.87;4.90;;;17.60;99.90;;;;;;6278707;22;20489;-80
2023/07/15 00:43:58;;;;;;;9.67;5.10;;;17.60;99.90;;;;;;6278619;22;20152;-81
2023/07/15 00:47:02;;;;;;;7.27;4.93;;;17.60;99.90;;;;;;6278475;22;20177;-80
2023/07/15 00:49:39;;;;;;;11.00;5.17;;;17.60;99.90;;;;;;6161177;23;20171;-80
2023/07/15 00:52:13;;;;;;;7.67;5.07;;;17.60;99.90;;;;;;6186084;23;20206;-80
2023/07/15 00:54:42;;;;;;;8.53;5.50;;;17.60;99.90;;;;;;6161253;23;20163;-81
2023/07/15 00:57:11;;;;;;;8.63;5.00;;;17.60;99.90;;;;;;6185952;23;20179;-80
2023/07/15 00:59:40;;;;;;;8.80;5.50;;;17.60;99.90;;;;;;6161311;23;20194;-80
2023/07/15 01:02:09;;;;;;;6.43;4.70;;;17.70;99.90;;;;;;6161140;23;20200;-80
2023/07/15 01:04:36;;;;;;;8.03;5.27;;;17.70;99.90;;;;;;6161361;23;20566;-81
2023/07/15 01:07:06;;;;;;;7.97;5.10;;;17.70;99.90;;;;;;6161111;23;20199;-80
2023/07/15 01:09:35;;;;;;;6.80;4.80;;;17.70;99.90;;;;;;6185970;23;20164;-80
2023/07/15 01:12:02;;;;;;;8.33;5.03;;;17.60;99.90;;;;;;6185940;23;20283;-80
2023/07/15 01:14:30;;;;;;;8.57;5.33;;;17.50;99.90;;;;;;6161164;23;20172;-80
2023/07/15 01:16:57;;;;;;;10.50;4.97;;;17.50;99.90;;;;;;6160996;23;20211;-80
2023/07/15 01:19:24;;;;;;;11.37;5.60;;;17.50;99.90;;;;;;6161139;23;20214;-80
2023/07/15 01:21:51;;;;;;;11.73;5.33;;;17.50;99.90;;;;;;6186119;23;20194;-80
2023/07/15 01:24:22;;;;;;;9.00;5.27;;;17.40;99.90;;;;;;6262772;22;20211;-80
2023/07/15 01:26:58;;;;;;;8.00;5.40;;;17.50;99.90;;;;;;6278319;22;20190;-80
2023/07/15 01:29:25;;;;;;;7.67;5.17;;;17.50;99.90;;;;;;6278675;22;20161;-80
2023/07/15 01:31:52;;;;;;;9.73;5.40;;;17.40;99.90;;;;;;6278742;22;20186;-80
2023/07/15 01:34:22;;;;;;;8.87;5.80;;;17.40;99.90;;;;;;6279134;22;20483;-79
2023/07/15 01:36:49;;;;;;;7.37;5.60;;;17.40;99.90;;;;;;6254756;22;20197;-80
2023/07/15 01:39:17;;;;;;;7.00;4.93;;;17.40;99.90;;;;;;6281477;22;20177;-79
2023/07/15 01:41:44;;;;;;;8.93;5.47;;;17.40;99.90;;;;;;6280367;22;20444;-79
2023/07/15 01:44:12;;;;;;;8.63;5.73;;;17.40;99.90;;;;;;6280442;22;20165;-79
2023/07/15 01:46:39;;;;;;;9.43;5.67;;;17.50;99.90;;;;;;6280213;22;20182;-79
2023/07/15 01:49:07;;;;;;;11.60;6.10;;;17.50;99.90;;;;;;6280442;22;20170;-81
2023/07/15 01:51:35;;;;;;;9.60;5.50;;;17.60;99.90;;;;;;6279850;22;20193;-80
2023/07/15 01:54:02;;;;;;;8.47;5.77;;;17.50;99.90;;;;;;6280345;22;20532;-80
2023/07/15 01:56:30;;;;;;;8.43;5.20;;;17.50;99.90;;;;;;6254469;22;20189;-80
2023/07/15 01:58:57;;;;;;;8.00;5.83;;;17.50;99.90;;;;;;6280222;22;20192;-80
2023/07/15 02:01:25;;;;;;;8.73;5.70;;;17.50;99.90;;;;;;6281203;22;20188;-81
2023/07/15 02:03:52;;;;;;;8.67;5.93;;;17.50;99.90;;;;;;6281557;22;20196;-80
2023/07/15 02:06:19;;;;;;;9.47;6.03;;;17.50;99.90;;;;;;6254785;22;20188;-80
2023/07/15 02:08:46;;;;;;;8.90;6.07;;;17.40;99.90;;;;;;6280292;22;20170;-79
2023/07/15 02:11:13;;;;;;;10.17;6.03;;;17.30;99.90;;;;;;6280149;22;20190;-80
2023/07/15 02:13:40;;;;;;;10.57;5.90;;;17.30;99.90;;;;;;6280127;22;20223;-80
2023/07/15 02:16:07;;;;;;;10.73;6.07;;;17.30;99.90;;;;;;6254615;22;20189;-80
2023/07/15 02:18:35;;;;;;;7.83;5.60;;;17.20;99.90;;;;;;6281653;22;20204;-80
2023/07/15 02:21:02;;;;;;;8.23;5.80;;;17.20;99.90;;;;;;6254563;22;20248;-80
2023/07/15 02:23:30;;;;;;;11.33;6.03;;;17.10;99.90;;;;;;6279554;22;20158;-80
2023/07/15 02:25:57;;;;;;;12.80;6.10;;;17.10;99.90;;;;;;6279896;22;20474;-80
2023/07/15 02:28:26;;;;;;;8.47;6.33;;;17.10;99.90;;;;;;6281055;22;20544;-80
2023/07/15 02:30:55;;;;;;;8.53;6.13;;;17.10;99.90;;;;;;6279889;22;20204;-80
2023/07/15 02:33:23;;;;;;;9.63;5.60;;;17.10;99.90;;;;;;6280043;22;20266;-80
2023/07/15 02:35:51;;;;;;;9.37;6.30;;;17.10;99.90;;;;;;6279477;22;20197;-80
2023/07/15 02:38:18;;;;;;;10.83;6.43;;;17.00;99.90;;;;;;6279514;22;20461;-80
2023/07/15 02:40:49;;;;;;;8.43;6.03;;;17.00;99.90;;;;;;6280842;22;20165;-80
2023/07/15 02:43:19;;;;;;;10.97;6.40;;;17.00;99.90;;;;;;6254148;22;20207;-80
2023/07/15 02:45:49;;;;;;;10.03;6.00;;;17.00;99.90;;;;;;6279301;22;20231;-80
2023/07/15 02:48:17;;;;;;;7.93;6.17;;;16.90;99.90;;;;;;6279821;22;20170;-80
2023/07/15 02:50:44;;;;;;;8.93;5.97;;;16.90;99.90;;;;;;6279582;22;20223;-81
2023/07/15 02:53:11;;;;;;;8.03;6.07;;;17.00;99.90;;;;;;6253985;22;20440;-80
2023/07/15 02:55:38;;;;;;;10.37;6.27;;;16.90;99.90;;;;;;6279262;22;20541;-80
2023/07/15 02:58:05;;;;;;;10.27;6.37;;;16.90;99.90;;;;;;6279433;22;20193;-80
2023/07/15 03:00:31;;;;;;;9.30;6.33;;;16.90;99.90;;;;;;6279653;22;20169;-79
2023/07/15 03:02:59;;;;;;;12.80;6.70;;;17.00;99.90;;;;;;6279581;22;20182;-80
2023/07/15 03:05:26;;;;;;;11.50;6.50;;;16.80;99.90;;;;;;6279356;22;20158;-80
2023/07/15 03:07:53;;;;;;;9.00;6.40;;;16.90;99.90;;;;;;6280596;22;20595;-80
2023/07/15 03:10:20;;;;;;;10.27;6.93;;;16.90;99.90;;;;;;6279601;22;20276;-80
2023/07/15 03:12:48;;;;;;;9.77;6.60;;;16.90;99.90;;;;;;6280474;22;20190;-80
2023/07/15 03:15:15;;;;;;;10.13;6.73;;;16.90;99.90;;;;;;6279229;22;20173;-81
2023/07/15 03:17:43;;;;;;;11.60;7.13;;;17.00;99.90;;;;;;6279419;22;20511;-80
2023/07/15 03:20:21;;;;;;;10.97;6.70;;;17.00;99.90;;;;;;6280871;22;20416;-80
2023/07/15 03:22:50;;;;;;;12.77;6.90;;;17.00;99.90;;;;;;6279108;22;20181;-80
2023/07/15 03:25:21;;;;;;;11.30;6.70;;;17.00;99.90;;;;;;6279412;22;20169;-80
2023/07/15 03:27:49;;;;;;;9.73;6.43;;;17.10;99.90;;;;;;6279445;22;20212;-80
2023/07/15 03:30:17;;;;;;;12.23;7.47;;;17.10;99.90;;;;;;6280462;22;20181;-80
2023/07/15 03:32:45;;;;;;;10.87;7.13;;;17.10;99.90;;;;;;6279393;22;20182;-80
2023/07/15 03:35:13;;;;;;;10.77;7.30;;;17.10;99.90;;;;;;6280521;22;20158;-80
2023/07/15 03:37:42;;;;;;;11.00;7.63;;;17.10;99.90;;;;;;6279950;22;20484;-80
2023/07/15 03:40:10;;;;;;;10.97;8.03;;;17.10;99.90;;;;;;6280366;22;20161;-80
2023/07/15 03:42:38;;;;;;;12.50;7.70;;;17.20;99.90;;;;;;6279195;22;20205;-80
2023/07/15 03:45:06;;;;;;;14.80;7.77;;;17.20;99.90;;;;;;6280291;22;20227;-80
2023/07/15 03:47:34;;;;;;;12.97;8.27;;;17.10;99.90;;;;;;6278790;22;20447;-80
2023/07/15 03:50:02;;;;;;;12.23;7.97;;;17.10;99.90;;;;;;6280194;22;20546;-79
2023/07/15 03:52:30;;;;;;;11.17;7.73;;;17.10;99.90;;;;;;6279155;22;20190;-80
2023/07/15 03:54:59;;;;;;;14.50;8.30;;;17.00;99.90;;;;;;6280502;22;20462;-80
2023/07/15 03:57:26;;;;;;;9.43;7.50;;;17.00;99.90;;;;;;6279738;22;20235;-80
2023/07/15 03:59:53;;;;;;;15.27;9.30;;;17.00;99.90;;;;;;6278656;22;20189;-79
2023/07/15 04:02:20;;;;;;;14.60;8.60;;;17.00;99.90;;;;;;6278829;22;20182;-79
2023/07/15 04:04:47;;;;;;;15.70;9.07;;;17.00;99.90;;;;;;6253844;22;20200;-80
2023/07/15 04:07:14;;;;;;;13.07;9.73;;;16.90;99.90;;;;;;6253534;22;20196;-80
2023/07/15 04:09:41;;;;;;;18.67;9.87;;;16.90;99.90;;;;;;6253475;22;20332;-80
2023/07/15 04:12:08;;;;;;;14.80;9.70;;;17.00;99.90;;;;;;6278629;22;20603;-79
2023/07/15 04:14:36;;;;;;;13.73;9.40;;;17.10;99.90;;;;;;6253683;22;20229;-79
2023/07/15 04:17:04;;;;;;;13.23;9.43;;;17.20;99.90;;;;;;6278582;22;20457;-79
2023/07/15 04:19:31;;;;;;;13.43;9.10;;;17.20;99.90;;;;;;6279974;22;20177;-79
2023/07/15 04:21:58;;;;;;;16.00;9.30;;;17.30;99.90;;;;;;6278592;22;20190;-79
2023/07/15 04:24:25;;;;;;;13.93;8.63;;;17.50;99.90;;;;;;6280330;22;20646;-79
2023/07/15 04:26:52;;;;;;;13.63;9.10;;;17.40;99.90;;;;;;6278923;22;20182;-79
2023/07/15 04:29:21;;;;;;;14.27;9.40;;;17.50;99.90;;;;;;6248369;23;20174;-80
2023/07/15 04:31:48;;;;;;;17.57;10.20;;;17.50;99.90;;;;;;6247911;23;20196;-79
2023/07/15 04:34:15;;;;;;;16.17;10.10;;;17.50;99.90;;;;;;6248287;22;20252;-80
2023/07/15 04:36:42;;;;;;;16.27;10.50;;;17.50;99.90;;;;;;6247809;23;20202;-79
2023/07/15 04:39:09;;;;;;;13.53;10.53;;;17.60;99.90;;;;;;6248208;23;20224;-80
2023/07/15 04:41:36;;;;;;;17.00;10.90;;;17.60;99.90;;;;;;6249533;22;20185;-80
2023/07/15 04:44:03;;;;;;;14.37;10.13;;;17.60;99.90;;;;;;6249670;22;20460;-79
2023/07/15 04:46:30;;;;;;;14.83;10.20;;;17.60;99.90;;;;;;6249212;22;20194;-80
2023/07/15 04:48:58;;;;;;;13.13;10.33;;;17.70;99.90;;;;;;6248168;23;20177;-79
2023/07/15 04:51:25;;;;;;;17.20;10.10;;;17.80;99.90;;;;;;6248954;22;20475;-80
2023/07/15 04:53:52;;;;;;;14.43;10.03;;;17.90;99.90;;;;;;6248216;23;20170;-80
2023/07/15 04:56:19;;;;;;;14.17;10.30;;;18.00;99.90;;;;;;6248160;23;20465;-80
2023/07/15 04:58:46;;;;;;;13.97;9.80;;;18.20;99.90;;;;;;6247883;22;20277;-79
2023/07/15 05:01:13;;;;;;;15.00;10.13;;;18.20;99.90;;;;;;6273710;22;20186;-80
2023/07/15 05:03:41;;;;;;;15.87;10.23;;;18.30;99.90;;;;;;6249301;22;20158;-80
2023/07/15 05:06:09;;;;;;;15.83;11.03;;;18.40;99.90;;;;;;6222968;23;20186;-80
2023/07/15 05:08:37;;;;;;;15.83;11.20;;;18.50;99.90;;;;;;6250197;22;20169;-80
2023/07/15 05:11:04;;;;;;;19.03;11.13;;;18.50;99.90;;;;;;6249718;23;20224;-81
2023/07/15 05:13:31;;;;;;;15.10;11.00;;;18.50;99.90;;;;;;6225164;23;20257;-80
2023/07/15 05:15:58;;;;;;;15.07;11.13;;;18.80;99.90;;;;;;6249957;23;20216;-80
2023/07/15 05:18:26;;;;;;;14.97;10.30;;;18.80;99.90;;;;;;6250956;22;20178;-80
2023/07/15 05:20:52;;;;;;;14.50;10.00;;;18.90;99.90;;;;;;6250000;23;20170;-80
2023/07/15 05:23:20;;;;;;;13.97;9.80;;;19.00;99.90;;;;;;6249715;23;20194;-79
2023/07/15 05:25:47;;;;;;;14.53;9.10;;;19.10;99.90;;;;;;6249624;23;20170;-79
2023/07/15 05:28:15;;;;;;;10.97;8.40;;;19.10;99.90;;;;;;6249686;23;20163;-80
2023/07/15 05:30:41;;;;;;;14.27;9.30;;;19.20;99.90;;;;;;6249541;23;20172;-79
2023/07/15 05:33:09;;;;;;;13.03;8.80;;;19.40;99.90;;;;;;6249632;23;20170;-80
2023/07/15 05:35:36;;;;;;;13.07;8.80;;;19.50;99.90;;;;;;6250805;22;20541;-79
2023/07/15 05:38:03;;;;;;;13.07;8.17;;;19.70;99.90;;;;;;6249825;23;20190;-79
2023/07/15 05:40:30;;;;;;;11.13;7.40;;;19.70;99.90;;;;;;6249378;23;20277;-80
2023/07/15 05:42:57;;;;;;;12.43;7.30;;;19.80;99.90;;;;;;6274896;22;20183;-79
2023/07/15 05:45:24;;;;;;;14.40;8.70;;;20.00;99.90;;;;;;6275077;22;20599;-79
2023/07/15 05:47:51;;;;;;;11.47;7.23;;;20.10;99.90;;;;;;6249730;23;20190;-79
2023/07/15 05:50:18;;;;;;;10.17;7.07;;;20.20;99.90;;;;;;6249783;23;20177;-79
2023/07/15 05:52:45;;;;;;;11.07;7.17;;;20.40;99.90;;;;;;6249376;23;20193;-78
2023/07/15 05:55:12;;;;;;;9.37;7.03;;;20.50;99.90;;;;;;6249434;23;20213;-80
2023/07/15 05:57:39;;;;;;;10.77;6.90;;;20.70;99.90;;;;;;6249672;23;20556;-80
2023/07/15 06:00:09;;;;;;;13.07;6.80;;;20.80;99.90;;;;;;6274908;22;20190;-80
2023/07/15 06:02:38;;;;;;;9.20;6.40;;;20.90;99.90;;;;;;6275045;22;20210;-80
2023/07/15 06:05:06;;;;;;;8.70;6.40;;;21.10;99.90;;;;;;6249646;23;20166;-85
2023/07/15 06:07:33;;;;;;;8.87;6.43;;;21.20;99.90;;;;;;6251066;22;20190;-85
2023/07/15 06:10:01;;;;;;;10.47;6.53;;;21.40;99.90;;;;;;6250047;23;20200;-86
2023/07/15 06:12:28;;;;;;;9.47;6.67;;;21.50;99.90;;;;;;6249287;23;20190;-87
2023/07/15 06:14:56;;;;;;;9.73;6.80;;;21.60;99.90;;;;;;6250148;23;20196;-86
2023/07/15 06:17:23;;;;;;;11.53;6.93;;;21.70;99.90;;;;;;6224553;23;20194;-86
2023/07/15 06:19:50;;;;;;;8.10;6.50;;;21.80;99.90;;;;;;6249771;23;20252;-85
2023/07/15 06:22:20;;;;;;;7.60;6.10;;;22.00;99.90;;;;;;6249905;23;20232;-86
2023/07/15 06:24:48;;;;;;;8.90;6.27;;;22.20;99.90;;;;;;6250515;23;20177;-87
2023/07/15 06:27:25;;;;;;;9.57;6.10;;;22.30;99.90;;;;;;6250199;23;20268;-87
2023/07/15 06:30:04;;;;;;;7.33;6.10;;;22.40;99.90;;;;;;6249691;23;20178;-85
2023/07/15 06:32:31;;;;;;;9.27;5.67;;;22.50;99.90;;;;;;6250582;22;20561;-85
2023/07/15 06:34:59;;;;;;;7.87;5.90;;;22.60;99.90;;;;;;6248935;23;20173;-85
2023/07/15 06:37:26;;;;;;;6.77;5.80;;;22.70;99.90;;;;;;6274047;22;20190;-88
2023/07/15 06:39:53;;;;;;;7.57;5.60;;;22.80;99.90;;;;;;6250401;22;20244;-83
2023/07/15 06:42:20;;;;;;;9.17;5.57;;;22.90;99.90;;;;;;6274793;22;20221;-84
2023/07/15 06:44:47;;;;;;;7.27;5.43;;;22.90;99.90;;;;;;6274589;22;20162;-85
2023/07/15 06:47:14;;;;;;;10.07;6.10;;;23.00;99.90;;;;;;6274574;22;20192;-80
2023/07/15 06:49:41;;;;;;;9.97;5.90;;;23.20;99.90;;;;;;6248471;23;20204;-80
2023/07/15 06:52:08;;;;;;;7.77;5.90;;;23.20;99.90;;;;;;6248313;23;20186;-80
2023/07/15 06:54:36;;;;;;;7.27;6.17;;;23.30;99.90;;;;;;6249675;22;20167;-80
2023/07/15 06:57:03;;;;;;;7.23;5.57;;;23.30;99.90;;;;;;6223097;23;20197;-80
2023/07/15 06:59:30;;;;;;;6.93;5.63;;;23.50;99.90;;;;;;6273844;22;20178;-79
2023/07/15 07:01:57;;;;;;;8.70;5.70;;;23.40;99.90;;;;;;6248255;23;20190;-72
2023/07/15 07:04:24;;;;;;;8.02;5.10;;;23.60;99.90;;;;;;6248761;23;20536;-80
2023/07/15 07:06:51;;;;;;;7.72;5.30;;;23.70;99.90;;;;;;6249832;22;20275;-80
2023/07/15 07:09:19;;;;;;;6.30;5.00;;;23.70;99.90;;;;;;6273942;22;20194;-79
2023/07/15 07:11:46;;;;;;;8.35;5.30;;;23.70;99.90;;;;;;6250040;22;20190;-80
2023/07/15 07:14:13;;;;;;;9.38;5.30;;;23.80;99.90;;;;;;6274591;22;20174;-81
2023/07/15 07:16:40;;;;;;;8.50;5.13;;;23.80;99.90;;;;;;6274435;22;20190;-80
2023/07/15 07:19:07;;;;;;;10.23;5.20;;;23.80;99.90;;;;;;6248962;23;20449;-81
2023/07/15 07:21:34;;;;;;;6.63;4.90;;;23.80;99.90;;;;;;6248576;23;20190;-81
2023/07/15 07:24:01;;;;;;;7.47;5.10;;;24.00;99.90;;;;;;6274670;22;20517;-80
2023/07/15 07:26:28;;;;;;;7.32;5.00;;;24.10;99.90;;;;;;6249875;22;20238;-80
2023/07/15 07:28:55;;;;;;;7.32;4.50;;;24.10;99.90;;;;;;6248619;23;20239;-80
2023/07/15 07:31:22;;;;;;;5.63;4.30;;;24.20;99.90;;;;;;6273446;22;20576;-80
2023/07/15 07:33:50;;;;;;;7.13;4.50;;;24.20;99.90;;;;;;6249544;22;20245;-80
2023/07/15 07:36:17;;;;;;;6.47;4.20;;;24.30;99.90;;;;;;6249806;22;20440;-81
2023/07/15 07:38:44;;;;;;;6.80;4.72;;;24.50;99.90;;;;;;6248056;23;20247;-80
2023/07/15 07:41:15;;;;;;;6.65;4.00;;;24.70;99.90;;;;;;6247763;23;20182;-81
2023/07/15 07:43:42;;;;;;;6.80;4.22;;;24.80;99.90;;;;;;6249382;23;20178;-80
2023/07/15 07:46:12;;;;;;;9.13;4.80;;;24.90;99.90;;;;;;6222939;23;20632;-80
2023/07/15 07:48:40;;;;;;;8.60;4.07;;;25.00;99.90;;;;;;6249246;22;20514;-84
2023/07/15 07:51:07;;;;;;;5.00;4.10;;;24.90;99.90;;;;;;6248863;22;20642;-81
2023/07/15 07:53:34;;;;;;;6.53;4.60;;;24.90;99.90;;;;;;6247757;23;20216;-80
2023/07/15 07:56:01;;;;;;;6.40;4.05;;;25.00;99.90;;;;;;6222581;23;20481;-81
2023/07/15 07:58:28;;;;;;;4.93;3.63;;;25.20;99.90;;;;;;6247947;23;20220;-81
2023/07/15 08:00:55;;;;;;;5.07;3.65;;;25.20;99.90;;;;;;6248965;22;20220;-81
2023/07/15 08:03:23;;;;;;;7.68;4.32;;;25.40;99.90;;;;;;6249401;22;20296;-80
2023/07/15 08:05:50;;;;;;;6.13;4.07;;;25.60;99.90;;;;;;6223007;23;20170;-80
2023/07/15 08:08:19;;;;;;;7.30;4.10;;;25.80;99.90;;;;;;6248188;23;20224;-80
2023/07/15 08:10:46;;;;;;;5.00;4.00;;;25.70;99.90;;;;;;6247633;23;20193;-80
2023/07/15 08:13:14;;;;;;;5.22;3.80;;;25.80;99.90;;;;;;6273608;22;20180;-82
2023/07/15 08:15:41;;;;;;;6.53;3.92;;;25.80;99.90;;;;;;6247433;23;20177;-80
2023/07/15 08:18:08;;;;;;;6.32;3.75;;;25.90;99.90;;;;;;6249775;22;20166;-81
2023/07/15 08:20:38;;;;;;;8.00;4.22;;;26.00;99.90;;;;;;6247699;23;20200;-81
2023/07/15 08:23:05;;;;;;;16.35;3.60;;;26.00;99.90;;;;;;6273322;22;20297;-79
2023/07/15 08:25:32;;;;;;;6.35;3.60;;;26.20;99.90;;;;;;6247415;23;20551;-80
2023/07/15 08:27:59;;;;;;;4.30;3.13;;;26.60;99.90;;;;;;6247788;23;20182;-80
2023/07/15 08:30:27;;;;;;;4.75;3.40;;;27.20;99.90;;;;;;6248916;22;20216;-84
2023/07/15 08:32:54;;;;;;;5.88;3.20;;;27.90;99.90;;;;;;6248826;22;20182;-80
2023/07/15 08:35:21;;;;;;;7.07;3.60;;;28.40;99.90;;;;;;6272799;22;20174;-80
2023/07/15 08:37:48;;;;;;;4.38;3.25;;;28.80;99.90;;;;;;6246905;23;20512;-80
2023/07/15 08:40:23;;;;;;;6.35;3.28;;;29.40;99.30;;;;;;6272950;22;20265;-81
2023/07/15 08:42:51;;;;;;;3.75;3.15;;;29.70;97.30;;;;;;6223038;23;20190;-79
2023/07/15 08:45:19;;;;;;;4.80;3.17;;;29.90;95.70;;;;;;6249271;23;20541;-79
2023/07/15 08:47:47;;;;;;;4.22;2.88;;;30.30;95.90;;;;;;6274876;22;20194;-79
2023/07/15 08:50:15;;;;;;;7.63;3.50;;;30.10;93.80;;;;;;6275244;22;20173;-78
2023/07/15 08:52:43;;;;;;;4.28;3.13;;;30.10;92.90;;;;;;6249330;23;20186;-81
2023/07/15 08:55:12;;;;;;;5.60;3.05;;;30.50;92.90;;;;;;6250914;22;20475;-82
2023/07/15 08:57:39;;;;;;;3.60;2.67;;;30.70;91.70;;;;;;6249631;23;20232;-82
2023/07/15 09:00:10;;;;;;;5.80;3.00;;;31.00;90.80;;;;;;6251181;22;20174;-81
2023/07/15 09:02:38;;;;;;;4.13;2.95;;;31.10;90.30;;;;;;6249606;23;20470;-81
2023/07/15 09:05:09;;;;;;;5.80;3.50;;;31.10;87.50;;;;;;6274932;22;20166;-80
2023/07/15 09:07:51;;;;;;;5.80;2.88;;;31.20;88.00;;;;;;6249115;23;20569;-80
2023/07/15 09:10:18;;;;;;;4.95;2.90;;;31.00;86.20;;;;;;6249011;23;20473;-80
2023/07/15 09:12:51;;;;;;;4.97;2.90;;;31.10;84.90;;;;;;6250245;22;20189;-80
2023/07/15 09:15:18;;;;;;;5.95;3.17;;;31.30;85.70;;;;;;6250883;22;20157;-80
2023/07/15 09:17:57;;;;;;;3.90;2.92;;;31.50;85.80;;;;;;6250739;22;20500;-79
2023/07/15 09:20:26;;;;;;;8.07;3.10;;;31.80;83.50;;;;;;6248728;23;20197;-80
2023/07/15 09:22:56;;;;;;;5.93;3.00;;;31.80;82.70;;;;;;6274783;22;20573;-79
2023/07/15 09:25:24;;;;;;;3.92;3.08;;;32.10;82.60;;;;;;6274491;22;20154;-82
2023/07/15 09:27:52;;;;;;;4.53;2.80;;;31.60;79.10;;;;;;6249103;23;20213;-80
2023/07/15 09:30:19;;;;;;;5.00;3.00;;;31.80;81.10;;;;;;6249991;22;20438;-77
2023/07/15 09:32:47;;;;;;;6.57;3.10;;;31.90;80.70;;;;;;6248819;23;20423;-79
2023/07/15 09:35:15;;;;;;;4.75;3.10;;;32.30;80.00;;;;;;6274429;22;20228;-78
2023/07/15 09:37:45;;;;;;;4.43;3.00;;;32.70;79.90;;;;;;6274541;22;20294;-80
2023/07/15 09:40:13;;;;;;;3.47;2.95;;;33.00;77.50;;;;;;6249099;23;20446;-78
2023/07/15 09:43:00;;;;;;;4.25;2.75;;;33.10;76.10;;;;;;6274515;22;20193;-79
2023/07/15 09:45:32;;;;;;;6.55;3.40;;;33.10;75.30;;;;;;6249088;23;20525;-81
2023/07/15 09:48:00;;;;;;;3.95;2.88;;;33.10;74.40;;;;;;6250548;22;20179;-79
2023/07/15 09:50:28;;;;;;;6.55;3.30;;;32.80;74.30;;;;;;6274860;22;20197;-79
2023/07/15 09:52:57;;;;;;;5.40;3.30;;;32.90;74.40;;;;;;6249158;23;20182;-79
2023/07/15 09:55:24;;;;;;;4.20;3.10;;;32.70;74.20;;;;;;6248556;23;20245;-79
2023/07/15 09:58:07;;;;;;;5.72;3.25;;;32.70;74.00;;;;;;6248883;23;20186;-78
2023/07/15 10:00:37;;;;;;;4.38;2.90;;;33.10;74.10;;;;;;6248697;23;20596;-80
2023/07/15 10:03:08;;;;;;;3.72;3.20;;;33.30;72.90;;;;;;6250533;22;20201;-81
2023/07/15 10:05:36;;;;;;;4.40;2.95;;;33.10;72.30;;;;;;6248734;23;20163;-79
2023/07/15 10:08:04;;;;;;;4.63;3.05;;;33.10;72.40;;;;;;6223604;23;20277;-81
2023/07/15 10:10:32;;;;;;;5.25;3.38;;;33.20;72.70;;;;;;6250424;22;20428;-78
2023/07/15 10:12:59;;;;;;;4.95;3.40;;;33.10;71.70;;;;;;6248653;23;20186;-79
2023/07/15 10:15:27;;;;;;;6.10;3.15;;;33.50;72.40;;;;;;6250087;22;20162;-78
2023/07/15 10:17:53;;;;;;;5.20;3.38;;;33.70;72.00;;;;;;6248720;23;20476;-80
2023/07/15 10:20:22;;;;;;;4.50;3.08;;;33.70;70.10;;;;;;6248805;23;20564;-81
2023/07/15 10:22:50;;;;;;;3.97;3.00;;;34.00;70.60;;;;;;6248503;23;20196;-80
2023/07/15 10:25:18;;;;;;;4.53;3.40;;;34.50;70.40;;;;;;6248627;23;20170;-81
2023/07/15 10:27:45;;;;;;;6.10;3.13;;;34.20;68.60;;;;;;6248729;23;20510;-80
2023/07/15 10:30:23;;;;;;;7.20;3.40;;;34.30;68.50;;;;;;6248653;23;20189;-79
2023/07/15 10:33:08;;;;;;;5.93;3.58;;;34.10;68.30;;;;;;6248883;23;20196;-81
2023/07/15 10:35:41;;;;;;;6.70;3.10;;;34.30;68.60;;;;;;6249772;22;20150;-81
2023/07/15 10:38:27;;;;;;;4.82;3.42;;;34.80;68.70;;;;;;6248915;23;20166;-80
2023/07/15 10:40:56;;;;;;;5.38;3.47;;;35.10;66.30;;;;;;6248813;23;20189;-80
2023/07/15 10:43:35;;;;;;;4.85;3.25;;;35.60;65.90;;;;;;6248495;23;20166;-80
2023/07/15 10:46:16;;;;;;;3.70;3.10;;;35.60;65.30;;;;;;6248520;23;20224;-78
2023/07/15 10:48:44;;;;;;;5.07;3.20;;;35.70;64.50;;;;;;6274582;22;20176;-82
2023/07/15 10:51:12;;;;;;;4.60;2.88;;;35.90;64.80;;;;;;6248956;23;20232;-78
2023/07/15 10:53:39;;;;;;;3.53;2.92;;;36.10;65.00;;;;;;6274247;22;20177;-81
2023/07/15 10:56:11;;;;;;;4.32;3.20;;;36.40;63.50;;;;;;6249933;22;20192;-78
2023/07/15 10:58:40;;;;;;;3.50;2.80;;;36.50;61.20;;;;;;6250377;22;20154;-80
2023/07/15 11:01:10;;;;;;;3.42;2.70;;;36.50;60.90;;;;;;6249356;22;20186;-79
2023/07/15 11:03:39;;;;;;;3.38;2.80;;;36.60;59.80;;;;;;6248002;23;20190;-80
2023/07/15 11:06:06;;;;;;;3.00;2.70;;;36.90;59.30;;;;;;6249403;22;20178;-79
2023/07/15 11:08:38;;;;;;;3.75;2.53;;;37.30;60.30;;;;;;6249578;23;20162;-77
2023/07/15 11:11:08;;;;;;;3.78;2.72;;;37.40;58.00;;;;;;6250185;22;20251;-77
2023/07/15 11:13:36;;;;;;;4.60;3.05;;;37.30;58.20;;;;;;6249672;22;20167;-76
2023/07/15 11:16:04;;;;;;;3.05;2.58;;;37.00;58.40;;;;;;6248166;23;20194;-80
2023/07/15 11:18:31;;;;;;;3.15;2.75;;;36.00;58.30;;;;;;6223840;23;20174;-77
2023/07/15 11:21:01;;;;;;;5.15;2.78;;;34.60;61.60;;;;;;6248105;23;20512;-84
2023/07/15 11:23:28;;;;;;;4.05;2.80;;;34.20;62.00;;;;;;6273004;22;20166;-81
2023/07/15 11:25:57;;;;;;;3.53;3.00;;;35.00;60.20;;;;;;6248890;22;20163;-85
2023/07/15 11:28:24;;;;;;;3.70;2.67;;;35.40;59.70;;;;;;6250031;22;20218;-84
2023/07/15 11:30:52;;;;;;;3.47;2.80;;;34.90;57.40;;;;;;6247554;23;20165;-82
2023/07/15 11:33:19;;;;;;;3.20;2.90;;;35.40;58.40;;;;;;6248229;23;20170;-82
2023/07/15 11:35:46;;;;;;;3.42;2.53;;;35.40;58.40;;;;;;6249796;22;20667;-82
2023/07/15 11:38:15;;;;;;;4.20;2.65;;;36.10;56.60;;;;;;6273747;22;20163;-82
2023/07/15 11:41:08;;;;;;;2.97;2.60;;;36.20;57.30;;;;;;6273783;22;20260;-82
2023/07/15 11:43:35;;;;;;;2.95;2.65;;;36.10;56.30;;;;;;6245853;22;20193;-81
2023/07/15 11:46:02;;;;;;;4.85;2.47;;;36.70;57.00;;;;;;6274531;22;20526;-82
2023/07/15 11:48:36;;;;;;;3.67;2.70;;;36.50;56.00;;;;;;6224680;23;20170;-82
2023/07/15 11:51:05;;;;;;;3.60;2.70;;;35.60;56.70;;;;;;6274837;22;21504;-81
2023/07/15 11:53:38;;;;;;;3.38;2.80;;;34.60;57.10;;;;;;6247925;23;20173;-81
2023/07/15 11:56:08;;;;;;;5.03;2.70;;;34.80;57.90;;;;;;6248361;23;20186;-84
2023/07/15 11:58:44;;;;;;;4.45;3.00;;;34.50;57.50;;;;;;6249257;22;20233;-83
2023/07/15 12:01:14;;;;;;;4.63;2.80;;;34.20;58.80;;;;;;6247635;23;20194;-83
2023/07/15 12:03:44;;;;;;;3.58;2.70;;;34.70;58.70;;;;;;6248216;23;20530;-83
2023/07/15 12:06:19;;;;;;;3.22;2.88;;;35.00;57.10;;;;;;6248018;23;20460;-84
2023/07/15 12:09:09;;;;;;;4.65;2.92;;;35.20;57.20;;;;;;6249407;22;20517;-84
2023/07/15 12:11:37;;;;;;;3.78;2.90;;;35.50;57.60;;;;;;6249072;22;20269;-82
2023/07/15 12:14:07;;;;;;;4.65;2.67;;;36.00;57.50;;;;;;6248156;23;20166;-83
2023/07/15 12:16:37;;;;;;;5.07;2.67;;;36.30;55.00;;;;;;6248231;23;20581;-84
2023/07/15 12:19:05;;;;;;;3.63;2.70;;;36.90;54.70;;;;;;6248718;23;20197;-79
2023/07/15 12:21:34;;;;;;;3.45;2.60;;;36.90;54.50;;;;;;6248319;23;20201;-83
2023/07/15 12:24:01;;;;;;;4.70;2.72;;;37.40;52.60;;;;;;6247589;23;20166;-81
2023/07/15 12:26:28;;;;;;;4.32;2.60;;;37.50;52.30;;;;;;6273008;22;20264;-81
2023/07/15 12:28:56;;;;;;;3.47;2.45;;;38.00;52.90;;;;;;6248685;22;20249;-82
2023/07/15 12:31:24;;;;;;;3.53;2.80;;;38.20;51.30;;;;;;6247874;23;20225;-83
2023/07/15 12:33:51;;;;;;;3.58;2.65;;;37.90;50.00;;;;;;6247601;23;20212;-83
2023/07/15 12:36:19;;;;;;;2.90;2.60;;;37.10;52.10;;;;;;6247398;23;20206;-81
2023/07/15 12:38:46;;;;;;;4.53;2.45;;;37.10;51.50;;;;;;6248944;22;20446;-82
2023/07/15 12:41:14;;;;;;;4.43;2.70;;;37.10;52.30;;;;;;6249144;23;20189;-82
2023/07/15 12:43:41;;;;;;;3.25;2.45;;;37.80;52.30;;;;;;6273140;22;20193;-82
2023/07/15 12:46:08;;;;;;;4.43;2.72;;;38.60;50.00;;;;;;6273140;22;20289;-81
2023/07/15 12:48:36;;;;;;;3.08;2.40;;;38.40;49.20;;;;;;6273512;22;20185;-81
2023/07/15 12:51:03;;;;;;;2.85;2.35;;;38.80;49.40;;;;;;6247380;23;20194;-81